createdAt,value
2023-02-13T00:00:18.435Z,72.39
2023-02-13T00:05:09.143Z,72.35
2023-02-13T00:09:59.642Z,72.39
2023-02-13T00:14:52.906Z,72.76
2023-02-13T00:19:47.325Z,72.97
2023-02-13T00:24:38.514Z,73.13
2023-02-13T00:29:29.214Z,73.00
2023-02-13T00:34:22.375Z,73.15
2023-02-13T00:39:14.810Z,73.21
2023-02-13T00:44:07.893Z,73.06
2023-02-13T00:48:58.651Z,73.17
2023-02-13T00:53:51.926Z,73.71
2023-02-13T00:58:42.346Z,73.05
2023-02-13T01:03:33.259Z,73.21
2023-02-13T01:08:28.955Z,73.02
2023-02-13T01:13:24.815Z,72.78
2023-02-13T01:18:18.244Z,73.01
2023-02-13T01:23:08.899Z,72.94
2023-02-13T01:27:59.588Z,73.32
2023-02-13T01:32:55.139Z,73.04
2023-02-13T01:37:48.153Z,73.23
2023-02-13T01:42:40.487Z,73.25
2023-02-13T01:47:32.196Z,73.25
2023-02-13T01:52:26.370Z,75.05
2023-02-13T01:57:22.214Z,75.25
2023-02-13T02:02:14.635Z,75.37
2023-02-13T02:07:10.259Z,75.09
2023-02-13T02:12:10.788Z,75.28
2023-02-13T02:17:05.944Z,82.89
2023-02-13T02:22:22.592Z,82.67
2023-02-13T02:28:04.666Z,76.86
2023-02-13T02:33:10.979Z,76.16
2023-02-13T02:38:25.073Z,75.22
2023-02-13T02:43:33.199Z,75.72
2023-02-13T02:48:49.419Z,75.18
2023-02-13T02:53:55.502Z,75.33
2023-02-13T02:59:05.880Z,75.36
2023-02-13T03:04:15.965Z,75.24
2023-02-13T03:09:24.929Z,75.24
2023-02-13T03:14:21.101Z,75.14
2023-02-13T03:19:40.245Z,74.94
2023-02-13T03:24:39.086Z,75.30
2023-02-13T03:29:55.596Z,74.89
2023-02-13T03:35:10.601Z,75.46
2023-02-13T03:40:06.999Z,75.13
2023-02-13T03:45:15.673Z,74.90
2023-02-13T03:50:17.606Z,75.65
2023-02-13T03:55:25.815Z,75.39
2023-02-13T04:00:19.873Z,75.52
2023-02-13T04:05:22.670Z,75.64
2023-02-13T04:10:37.086Z,75.14
2023-02-13T04:15:45.293Z,75.54
2023-02-13T04:20:38.786Z,75.20
2023-02-13T04:25:30.988Z,74.82
2023-02-13T04:30:24.673Z,75.26
2023-02-13T04:35:16.949Z,75.05
2023-02-13T04:40:17.564Z,75.33
2023-02-13T04:45:09.604Z,75.52
2023-02-13T04:50:13.968Z,75.65
2023-02-13T04:55:10.477Z,75.80
2023-02-13T05:00:10.535Z,76.18
2023-02-13T05:05:06.257Z,76.05
2023-02-13T05:10:01.416Z,76.40
2023-02-13T05:14:56.264Z,76.14
2023-02-13T05:19:49.919Z,76.21
2023-02-13T05:24:41.341Z,76.16
2023-02-13T05:29:33.880Z,76.26
2023-02-13T05:34:26.260Z,76.12
2023-02-13T05:39:20.797Z,75.57
2023-02-13T05:44:20.307Z,75.77
2023-02-13T05:49:13.049Z,75.42
2023-02-13T05:54:10.602Z,75.59
2023-02-13T05:59:08.549Z,75.56
2023-02-13T06:04:09.235Z,75.31
2023-02-13T06:09:15.087Z,75.42
2023-02-13T06:14:10.889Z,75.41
2023-02-13T06:19:03.379Z,75.84
2023-02-13T06:23:57.351Z,75.99
2023-02-13T06:28:49.741Z,76.28
2023-02-13T06:33:46.431Z,76.30
2023-02-13T06:38:37.268Z,76.71
2023-02-13T06:43:27.957Z,77.03
2023-02-13T06:48:18.523Z,76.84
2023-02-13T06:53:12.157Z,77.29
2023-02-13T06:58:02.414Z,77.05
2023-02-13T07:02:56.752Z,76.89
2023-02-13T07:07:47.267Z,77.11
2023-02-13T07:12:44.625Z,77.49
2023-02-13T07:17:46.567Z,77.79
2023-02-13T07:22:49.341Z,77.73
2023-02-13T07:27:43.838Z,78.03
2023-02-13T07:32:35.409Z,77.88
2023-02-13T07:37:27.449Z,78.26
2023-02-13T07:42:17.687Z,78.63
2023-02-13T07:47:10.352Z,78.56
2023-02-13T07:52:05.098Z,78.65
2023-02-13T07:57:01.344Z,78.79
2023-02-13T08:01:54.764Z,78.75
2023-02-13T08:06:49.148Z,78.53
2023-02-13T08:11:54.054Z,79.14
2023-02-13T08:16:45.577Z,79.45
2023-02-13T08:21:44.359Z,80.09
2023-02-13T08:26:43.195Z,80.11
2023-02-13T08:31:41.278Z,80.39
2023-02-13T08:36:32.305Z,80.25
2023-02-13T08:41:26.811Z,80.20
2023-02-13T08:46:22.471Z,81.26
2023-02-13T08:51:28.343Z,80.39
2023-02-13T08:56:22.139Z,80.50
2023-02-13T09:01:13.486Z,80.68
2023-02-13T09:06:10.230Z,80.35
2023-02-13T09:11:02.445Z,80.80
2023-02-13T09:15:53.634Z,81.12
2023-02-13T09:20:47.129Z,80.54
2023-02-13T09:25:43.431Z,80.83
2023-02-13T09:30:47.522Z,80.35
2023-02-13T09:35:43.266Z,80.14
2023-02-13T09:40:41.041Z,80.22
2023-02-13T09:45:33.607Z,80.21
2023-02-13T09:50:28.070Z,79.70
2023-02-13T09:55:22.325Z,78.36
2023-02-13T10:00:27.803Z,75.48
2023-02-13T10:05:28.493Z,74.47
2023-02-13T10:10:28.683Z,74.92
2023-02-13T10:15:24.450Z,73.81
2023-02-13T10:20:29.084Z,74.28
2023-02-13T10:25:25.118Z,74.73
2023-02-13T10:30:24.375Z,72.37
2023-02-13T10:35:24.148Z,69.11
2023-02-13T10:40:18.018Z,67.67
2023-02-13T10:45:37.422Z,72.22
2023-02-13T10:50:40.048Z,73.05
2023-02-13T10:55:51.383Z,71.87
2023-02-13T11:00:52.583Z,71.23
2023-02-13T11:05:44.148Z,71.57
2023-02-13T11:10:42.143Z,70.40
2023-02-13T11:15:37.548Z,70.01
2023-02-13T11:20:42.277Z,68.65
2023-02-13T11:25:34.953Z,68.33
2023-02-13T11:30:37.992Z,64.54
2023-02-13T11:35:33.970Z,67.50
2023-02-13T11:40:35.963Z,67.33
2023-02-13T11:45:29.161Z,68.05
2023-02-13T11:50:32.935Z,66.35
2023-02-13T11:55:39.816Z,66.01
2023-02-13T12:00:40.555Z,65.58
2023-02-13T12:05:33.701Z,66.71
2023-02-13T12:10:28.328Z,66.08
2023-02-13T12:15:30.260Z,66.16
2023-02-13T12:20:24.812Z,65.21
2023-02-13T12:25:42.267Z,62.36
2023-02-13T12:31:06.610Z,62.85
2023-02-13T12:36:07.164Z,64.69
2023-02-13T12:41:24.070Z,60.43
2023-02-13T12:46:27.051Z,59.41
2023-02-13T12:51:39.828Z,57.52
2023-02-13T12:57:02.189Z,60.39
2023-02-13T13:02:13.158Z,58.56
2023-02-13T13:07:26.917Z,63.65
2023-02-13T13:12:33.677Z,61.54
2023-02-13T13:17:44.422Z,59.44
2023-02-13T13:22:43.466Z,57.96
2023-02-13T13:27:40.530Z,56.79
2023-02-13T13:32:38.474Z,54.86
2023-02-13T13:37:37.084Z,55.25
2023-02-13T13:42:42.992Z,55.34
2023-02-13T13:47:51.033Z,55.74
2023-02-13T13:52:47.218Z,56.48
2023-02-13T13:58:06.684Z,57.09
2023-02-13T14:03:38.574Z,57.86
2023-02-13T14:09:05.846Z,58.68
2023-02-13T14:14:01.700Z,58.47
2023-02-13T14:18:54.915Z,58.59
2023-02-13T14:23:54.219Z,58.16
2023-02-13T14:29:04.861Z,58.21
2023-02-13T14:34:05.914Z,57.60
2023-02-13T14:39:02.496Z,57.32
2023-02-13T14:43:59.347Z,56.25
2023-02-13T14:49:03.481Z,55.81
2023-02-13T14:54:03.815Z,55.50
2023-02-13T14:59:00.215Z,54.93
2023-02-13T15:04:05.767Z,55.16
2023-02-13T15:09:10.965Z,55.03
2023-02-13T15:14:20.973Z,55.16
2023-02-13T15:19:20.169Z,55.46
2023-02-13T15:24:23.309Z,54.97
2023-02-13T15:29:29.376Z,55.79
2023-02-13T15:34:26.791Z,55.89
2023-02-13T15:39:25.981Z,56.10
2023-02-13T15:44:30.653Z,56.21
2023-02-13T15:49:29.811Z,56.79
2023-02-13T15:54:33.196Z,56.90
2023-02-13T15:59:25.801Z,57.14
2023-02-13T16:04:36.426Z,57.35
2023-02-13T16:09:37.196Z,57.68
2023-02-13T16:14:40.906Z,58.20
2023-02-13T16:19:58.968Z,58.88
2023-02-13T16:24:58.217Z,59.84
2023-02-13T16:30:05.951Z,60.66
2023-02-13T16:35:03.692Z,61.05
2023-02-13T16:40:38.672Z,61.53
2023-02-13T16:45:36.090Z,61.64
2023-02-13T16:50:27.776Z,62.47
2023-02-13T16:55:27.095Z,59.13
2023-02-13T17:00:28.082Z,58.70
2023-02-13T17:05:22.244Z,58.85
2023-02-13T17:10:33.649Z,59.16
2023-02-13T17:15:29.876Z,59.34
2023-02-13T17:20:28.055Z,59.84
2023-02-13T17:25:30.470Z,59.79
2023-02-13T17:30:33.291Z,60.06
2023-02-13T17:35:24.249Z,60.44
2023-02-13T17:40:22.267Z,60.81
2023-02-13T17:45:20.155Z,60.75
2023-02-13T17:50:15.516Z,61.48
2023-02-13T17:55:17.898Z,62.22
2023-02-13T18:00:16.587Z,62.33
2023-02-13T18:05:13.797Z,62.19
2023-02-13T18:10:08.447Z,62.26
2023-02-13T18:15:01.070Z,62.47
2023-02-13T18:19:51.118Z,62.62
2023-02-13T18:24:46.243Z,63.02
2023-02-13T18:29:40.920Z,62.98
2023-02-13T18:34:41.214Z,63.36
2023-02-13T18:39:38.100Z,63.81
2023-02-13T18:44:31.189Z,63.79
2023-02-13T18:49:25.187Z,63.69
2023-02-13T18:54:24.700Z,63.93
2023-02-13T18:59:15.872Z,63.84
2023-02-13T19:04:05.913Z,64.07
2023-02-13T19:08:59.361Z,64.65
2023-02-13T19:13:54.940Z,64.54
2023-02-13T19:18:55.056Z,64.82
2023-02-13T19:23:48.073Z,64.61
2023-02-13T19:28:48.118Z,65.06
2023-02-13T19:33:46.854Z,65.42
2023-02-13T19:38:45.945Z,65.94
2023-02-13T19:43:36.030Z,66.01
2023-02-13T19:48:28.769Z,65.71
2023-02-13T19:53:20.131Z,66.14
2023-02-13T19:58:13.017Z,65.70
2023-02-13T20:03:04.260Z,65.80
2023-02-13T20:07:56.601Z,65.86
2023-02-13T20:12:48.507Z,66.00
2023-02-13T20:17:42.356Z,63.26
2023-02-13T20:22:39.468Z,63.58
2023-02-13T20:27:43.227Z,64.27
2023-02-13T20:32:37.704Z,64.11
2023-02-13T20:37:36.097Z,64.56
2023-02-13T20:42:35.121Z,64.77
2023-02-13T20:47:46.930Z,65.67
2023-02-13T20:52:47.105Z,65.23
2023-02-13T20:57:44.623Z,65.70
2023-02-13T21:02:56.468Z,66.00
2023-02-13T21:07:52.447Z,66.07
2023-02-13T21:12:43.889Z,66.33
2023-02-13T21:17:44.643Z,66.20
2023-02-13T21:22:35.971Z,66.21
2023-02-13T21:27:27.852Z,66.17
2023-02-13T21:32:25.881Z,66.77
2023-02-13T21:37:45.246Z,67.52
2023-02-13T21:42:38.064Z,69.23
2023-02-13T21:47:27.679Z,69.40
2023-02-13T21:52:22.484Z,69.35
2023-02-13T21:57:25.276Z,69.88
2023-02-13T22:02:16.908Z,69.50
2023-02-13T22:07:17.057Z,69.80
2023-02-13T22:12:09.334Z,69.29
2023-02-13T22:17:05.663Z,71.40
2023-02-13T22:21:56.307Z,70.37
2023-02-13T22:26:59.858Z,71.26
2023-02-13T22:31:50.074Z,70.60
2023-02-13T22:36:47.380Z,70.43
2023-02-13T22:41:55.261Z,70.21
2023-02-13T22:46:46.977Z,70.01
2023-02-13T22:51:47.113Z,70.08
2023-02-13T22:56:52.914Z,69.97
2023-02-13T23:01:44.993Z,69.72
2023-02-13T23:06:39.131Z,69.84
2023-02-13T23:11:44.673Z,69.65
2023-02-13T23:16:50.924Z,70.25
2023-02-13T23:21:41.813Z,69.85
2023-02-13T23:26:37.113Z,70.38
2023-02-13T23:31:28.607Z,69.91
2023-02-13T23:36:32.470Z,69.73
2023-02-13T23:41:24.657Z,70.08
2023-02-13T23:46:19.192Z,70.71
2023-02-13T23:51:10.407Z,70.54
2023-02-13T23:56:05.196Z,70.18
